sensor_id;sensor_type;location;lat;lon;timestamp;pressure;altitude;pressure_sealevel;temperature;humidity
62544;BME280;48597;49.030;1.822;2022-10-18T00:02:05;101708.03;;;20.50;55.56
62544;BME280;48597;49.030;1.822;2022-10-18T00:04:31;101706.38;;;20.49;55.47
62544;BME280;48597;49.030;1.822;2022-10-18T00:06:57;101701.00;;;20.49;55.57
62544;BME280;48597;49.030;1.822;2022-10-18T00:09:23;101700.03;;;20.50;55.59
62544;BME280;48597;49.030;1.822;2022-10-18T00:11:48;101702.69;;;20.50;55.63
62544;BME280;48597;49.030;1.822;2022-10-18T00:14:14;101707.22;;;20.49;55.72
62544;BME280;48597;49.030;1.822;2022-10-18T00:16:40;101717.06;;;20.49;55.62
62544;BME280;48597;49.030;1.822;2022-10-18T00:19:05;101716.19;;;20.48;55.55
62544;BME280;48597;49.030;1.822;2022-10-18T00:21:30;101716.19;;;20.48;55.63
62544;BME280;48597;49.030;1.822;2022-10-18T00:23:56;101710.84;;;20.48;55.51
62544;BME280;48597;49.030;1.822;2022-10-18T00:26:24;101721.41;;;20.50;55.64
62544;BME280;48597;49.030;1.822;2022-10-18T00:28:52;101725.06;;;20.49;55.58
62544;BME280;48597;49.030;1.822;2022-10-18T00:31:22;101723.25;;;20.49;55.63
62544;BME280;48597;49.030;1.822;2022-10-18T00:33:53;101725.06;;;20.49;55.52
62544;BME280;48597;49.030;1.822;2022-10-18T00:36:19;101719.72;;;20.49;55.75
62544;BME280;48597;49.030;1.822;2022-10-18T00:38:45;101721.53;;;20.48;55.60
62544;BME280;48597;49.030;1.822;2022-10-18T00:41:15;101733.09;;;20.49;55.63
62544;BME280;48597;49.030;1.822;2022-10-18T00:43:57;101726.88;;;20.48;55.83
62544;BME280;48597;49.030;1.822;2022-10-18T00:46:28;101731.38;;;20.48;55.47
62544;BME280;48597;49.030;1.822;2022-10-18T00:48:55;101727.75;;;20.49;55.68
62544;BME280;48597;49.030;1.822;2022-10-18T00:51:22;101731.28;;;20.49;55.61
62544;BME280;48597;49.030;1.822;2022-10-18T00:53:49;101733.09;;;20.49;55.61
62544;BME280;48597;49.030;1.822;2022-10-18T00:56:16;101731.38;;;20.48;55.80
62544;BME280;48597;49.030;1.822;2022-10-18T00:58:41;101737.56;;;20.48;55.81
62544;BME280;48597;49.030;1.822;2022-10-18T01:01:07;101731.38;;;20.48;55.61
62544;BME280;48597;49.030;1.822;2022-10-18T01:03:33;101738.53;;;20.47;55.81
62544;BME280;48597;49.030;1.822;2022-10-18T01:05:59;101736.72;;;20.48;55.65
62544;BME280;48597;49.030;1.822;2022-10-18T01:11:09;101744.75;;;20.48;55.65
62544;BME280;48597;49.030;1.822;2022-10-18T01:13:53;101747.41;;;20.48;55.44
62544;BME280;48597;49.030;1.822;2022-10-18T01:16:51;101750.94;;;20.48;55.77
62544;BME280;48597;49.030;1.822;2022-10-18T01:21:51;101751.06;;;20.47;55.91
62544;BME280;48597;49.030;1.822;2022-10-18T01:27:21;101735.00;;;20.47;55.67
62544;BME280;48597;49.030;1.822;2022-10-18T01:35:58;101732.47;;;20.45;55.57
62544;BME280;48597;49.030;1.822;2022-10-18T01:38:25;101729.66;;;20.47;55.66
62544;BME280;48597;49.030;1.822;2022-10-18T01:40:51;101727.00;;;20.47;55.76
62544;BME280;48597;49.030;1.822;2022-10-18T01:43:20;101717.28;;;20.46;55.75
62544;BME280;48597;49.030;1.822;2022-10-18T01:45:47;101718.00;;;20.48;55.67
62544;BME280;48597;49.030;1.822;2022-10-18T01:48:13;101718.97;;;20.47;55.56
62544;BME280;48597;49.030;1.822;2022-10-18T01:50:40;101727.00;;;20.47;55.61
62544;BME280;48597;49.030;1.822;2022-10-18T01:53:23;101728.81;;;20.46;55.63
62544;BME280;48597;49.030;1.822;2022-10-18T01:56:17;101727.00;;;20.47;55.66
62544;BME280;48597;49.030;1.822;2022-10-18T02:01:47;101724.31;;;20.47;55.67
62544;BME280;48597;49.030;1.822;2022-10-18T02:04:34;101720.94;;;20.45;55.59
62544;BME280;48597;49.030;1.822;2022-10-18T02:10:47;101727.97;;;20.46;55.86
62544;BME280;48597;49.030;1.822;2022-10-18T02:13:18;101727.97;;;20.46;55.60
62544;BME280;48597;49.030;1.822;2022-10-18T02:15:49;101727.13;;;20.45;55.61
62544;BME280;48597;49.030;1.822;2022-10-18T02:18:21;101724.47;;;20.45;55.70
62544;BME280;48597;49.030;1.822;2022-10-18T02:20:48;101727.13;;;20.45;55.81
62544;BME280;48597;49.030;1.822;2022-10-18T02:23:19;101727.97;;;20.46;55.67
62544;BME280;48597;49.030;1.822;2022-10-18T02:25:47;101734.31;;;20.45;55.58
62544;BME280;48597;49.030;1.822;2022-10-18T02:28:12;101739.66;;;20.45;55.74
62544;BME280;48597;49.030;1.822;2022-10-18T02:30:52;101745.00;;;20.45;55.68
62544;BME280;48597;49.030;1.822;2022-10-18T02:33:29;101744.16;;;20.44;55.57
62544;BME280;48597;49.030;1.822;2022-10-18T02:36:05;101741.50;;;20.44;55.63
62544;BME280;48597;49.030;1.822;2022-10-18T02:38:37;101747.69;;;20.45;55.68
62544;BME280;48597;49.030;1.822;2022-10-18T02:41:03;101738.81;;;20.44;55.48
62544;BME280;48597;49.030;1.822;2022-10-18T02:43:29;101741.50;;;20.44;55.61
62544;BME280;48597;49.030;1.822;2022-10-18T02:45:54;101743.31;;;20.44;55.66
62544;BME280;48597;49.030;1.822;2022-10-18T02:48:21;101742.34;;;20.45;55.59
62544;BME280;48597;49.030;1.822;2022-10-18T02:50:46;101742.34;;;20.45;55.66
62544;BME280;48597;49.030;1.822;2022-10-18T02:53:12;101743.19;;;20.45;55.66
62544;BME280;48597;49.030;1.822;2022-10-18T02:55:37;101739.66;;;20.45;55.64
62544;BME280;48597;49.030;1.822;2022-10-18T02:58:03;101746.00;;;20.44;55.53
62544;BME280;48597;49.030;1.822;2022-10-18T03:00:28;101753.03;;;20.45;55.52
62544;BME280;48597;49.030;1.822;2022-10-18T03:02:53;101760.06;;;20.46;55.56
62544;BME280;48597;49.030;1.822;2022-10-18T03:05:19;101764.72;;;20.44;55.52
62544;BME280;48597;49.030;1.822;2022-10-18T03:07:44;101768.22;;;20.44;55.58
62544;BME280;48597;49.030;1.822;2022-10-18T03:10:10;101763.84;;;20.43;55.61
62544;BME280;48597;49.030;1.822;2022-10-18T03:12:35;101763.84;;;20.43;55.60
62544;BME280;48597;49.030;1.822;2022-10-18T03:15:00;101766.66;;;20.42;55.83
62544;BME280;48597;49.030;1.822;2022-10-18T03:17:26;101768.34;;;20.43;55.56
62544;BME280;48597;49.030;1.822;2022-10-18T03:19:51;101772.72;;;20.44;55.83
62544;BME280;48597;49.030;1.822;2022-10-18T03:22:16;101771.84;;;20.43;55.66
62544;BME280;48597;49.030;1.822;2022-10-18T03:24:42;101783.41;;;20.44;55.60
62544;BME280;48597;49.030;1.822;2022-10-18T03:27:07;101772.72;;;20.44;55.59
62544;BME280;48597;49.030;1.822;2022-10-18T03:29:33;101774.53;;;20.43;55.60
62544;BME280;48597;49.030;1.822;2022-10-18T03:31:58;101785.22;;;20.43;55.45
62544;BME280;48597;49.030;1.822;2022-10-18T03:34:24;101784.38;;;20.43;55.66
62544;BME280;48597;49.030;1.822;2022-10-18T03:36:51;101787.06;;;20.43;55.61
62544;BME280;48597;49.030;1.822;2022-10-18T03:39:16;101795.06;;;20.43;55.73
62544;BME280;48597;49.030;1.822;2022-10-18T03:41:42;101797.75;;;20.43;55.71
62544;BME280;48597;49.030;1.822;2022-10-18T03:44:07;101800.41;;;20.43;55.60
62544;BME280;48597;49.030;1.822;2022-10-18T03:46:32;101795.91;;;20.43;55.47
62544;BME280;48597;49.030;1.822;2022-10-18T03:48:58;101798.59;;;20.43;55.50
62544;BME280;48597;49.030;1.822;2022-10-18T03:51:23;101788.88;;;20.42;55.48
62544;BME280;48597;49.030;1.822;2022-10-18T03:53:48;101788.88;;;20.42;55.58
62544;BME280;48597;49.030;1.822;2022-10-18T03:56:14;101791.56;;;20.42;55.68
62544;BME280;48597;49.030;1.822;2022-10-18T03:58:39;101793.25;;;20.43;55.52
62544;BME280;48597;49.030;1.822;2022-10-18T04:01:04;101796.91;;;20.42;55.53
62544;BME280;48597;49.030;1.822;2022-10-18T04:03:32;101798.72;;;20.42;55.54
62544;BME280;48597;49.030;1.822;2022-10-18T04:05:57;101801.25;;;20.43;55.59
62544;BME280;48597;49.030;1.822;2022-10-18T04:08:25;101795.06;;;20.43;55.62
62544;BME280;48597;49.030;1.822;2022-10-18T04:10:50;101803.09;;;20.43;55.47
62544;BME280;48597;49.030;1.822;2022-10-18T04:13:16;101793.38;;;20.42;55.61
62544;BME280;48597;49.030;1.822;2022-10-18T04:15:42;101803.09;;;20.43;55.59
62544;BME280;48597;49.030;1.822;2022-10-18T04:18:09;101801.41;;;20.42;55.47
62544;BME280;48597;49.030;1.822;2022-10-18T04:20:34;101801.41;;;20.42;55.58
62544;BME280;48597;49.030;1.822;2022-10-18T04:22:59;101801.41;;;20.42;55.55
62544;BME280;48597;49.030;1.822;2022-10-18T04:25:25;101804.06;;;20.42;55.51
62544;BME280;48597;49.030;1.822;2022-10-18T04:27:51;101806.75;;;20.42;55.53
62544;BME280;48597;49.030;1.822;2022-10-18T04:30:17;101812.09;;;20.42;55.71
62544;BME280;48597;49.030;1.822;2022-10-18T04:32:42;101813.09;;;20.41;55.52
62544;BME280;48597;49.030;1.822;2022-10-18T04:35:09;101804.06;;;20.42;55.41
62544;BME280;48597;49.030;1.822;2022-10-18T04:37:34;101803.22;;;20.41;55.56
62544;BME280;48597;49.030;1.822;2022-10-18T04:40:00;101793.53;;;20.40;55.47
62544;BME280;48597;49.030;1.822;2022-10-18T04:42:25;101799.72;;;20.41;55.60
62544;BME280;48597;49.030;1.822;2022-10-18T04:44:51;101807.72;;;20.41;55.53
62544;BME280;48597;49.030;1.822;2022-10-18T04:47:16;101803.22;;;20.41;55.47
62544;BME280;48597;49.030;1.822;2022-10-18T04:49:44;101805.91;;;20.41;55.49
62544;BME280;48597;49.030;1.822;2022-10-18T04:52:09;101805.06;;;20.41;55.40
62544;BME280;48597;49.030;1.822;2022-10-18T04:54:35;101810.41;;;20.41;55.50
62544;BME280;48597;49.030;1.822;2022-10-18T04:57:00;101813.09;;;20.41;55.50
62544;BME280;48597;49.030;1.822;2022-10-18T04:59:26;101812.09;;;20.42;55.55
62544;BME280;48597;49.030;1.822;2022-10-18T05:01:51;101810.41;;;20.41;55.61
62544;BME280;48597;49.030;1.822;2022-10-18T05:04:16;101811.25;;;20.41;55.55
62544;BME280;48597;49.030;1.822;2022-10-18T05:06:42;101815.75;;;20.41;55.54
62544;BME280;48597;49.030;1.822;2022-10-18T05:09:07;101821.94;;;20.41;55.51
62544;BME280;48597;49.030;1.822;2022-10-18T05:11:33;101812.25;;;20.40;55.31
62544;BME280;48597;49.030;1.822;2022-10-18T05:13:58;101814.91;;;20.40;55.54
62544;BME280;48597;49.030;1.822;2022-10-18T05:16:23;101815.75;;;20.41;55.48
62544;BME280;48597;49.030;1.822;2022-10-18T05:18:49;101812.25;;;20.40;55.57
62544;BME280;48597;49.030;1.822;2022-10-18T05:21:14;101810.41;;;20.41;55.52
62544;BME280;48597;49.030;1.822;2022-10-18T05:23:40;101808.72;;;20.40;55.61
62544;BME280;48597;49.030;1.822;2022-10-18T05:26:06;101815.75;;;20.41;55.47
62544;BME280;48597;49.030;1.822;2022-10-18T05:28:32;101816.75;;;20.40;55.45
62544;BME280;48597;49.030;1.822;2022-10-18T05:31:03;101816.75;;;20.40;55.50
62544;BME280;48597;49.030;1.822;2022-10-18T05:33:28;101821.22;;;20.39;55.56
62544;BME280;48597;49.030;1.822;2022-10-18T05:35:54;101824.75;;;20.40;55.35
62544;BME280;48597;49.030;1.822;2022-10-18T05:38:20;101823.03;;;20.39;55.54
62544;BME280;48597;49.030;1.822;2022-10-18T05:40:46;101828.38;;;20.39;55.46
62544;BME280;48597;49.030;1.822;2022-10-18T05:43:11;101820.38;;;20.39;55.44
62544;BME280;48597;49.030;1.822;2022-10-18T05:45:36;101826.69;;;20.38;55.46
62544;BME280;48597;49.030;1.822;2022-10-18T05:48:02;101829.50;;;20.36;55.53
62544;BME280;48597;49.030;1.822;2022-10-18T05:50:29;101837.41;;;20.38;55.69
62544;BME280;48597;49.030;1.822;2022-10-18T05:52:56;101835.72;;;20.37;55.44
62544;BME280;48597;49.030;1.822;2022-10-18T05:55:22;101838.38;;;20.37;55.53
62544;BME280;48597;49.030;1.822;2022-10-18T05:57:50;101843.00;;;20.34;55.37
62544;BME280;48597;49.030;1.822;2022-10-18T06:00:18;101846.50;;;20.35;55.56
62544;BME280;48597;49.030;1.822;2022-10-18T06:02:44;101841.31;;;20.33;55.40
62544;BME280;48597;49.030;1.822;2022-10-18T06:05:09;101846.50;;;20.35;55.51
62544;BME280;48597;49.030;1.822;2022-10-18T06:07:34;101850.03;;;20.35;55.51
62544;BME280;48597;49.030;1.822;2022-10-18T06:10:00;101851.75;;;20.37;55.38
62544;BME280;48597;49.030;1.822;2022-10-18T06:12:25;101852.59;;;20.37;55.68
62544;BME280;48597;49.030;1.822;2022-10-18T06:14:51;101853.28;;;20.39;55.26
62544;BME280;48597;49.030;1.822;2022-10-18T06:17:16;101859.38;;;20.41;55.62
62544;BME280;48597;49.030;1.822;2022-10-18T06:19:42;101856.56;;;20.43;55.46
62544;BME280;48597;49.030;1.822;2022-10-18T06:22:11;101855.72;;;20.42;55.37
62544;BME280;48597;49.030;1.822;2022-10-18T06:24:36;101857.28;;;20.45;55.67
62544;BME280;48597;49.030;1.822;2022-10-18T06:27:02;101854.63;;;20.45;55.29
62544;BME280;48597;49.030;1.822;2022-10-18T06:29:37;101861.50;;;20.47;55.27
62544;BME280;48597;49.030;1.822;2022-10-18T06:32:04;101856.94;;;20.49;55.40
62544;BME280;48597;49.030;1.822;2022-10-18T06:34:30;101864.81;;;20.51;55.24
62544;BME280;48597;49.030;1.822;2022-10-18T06:36:55;101861.19;;;20.52;55.07
62544;BME280;48597;49.030;1.822;2022-10-18T06:39:20;101869.91;;;20.54;55.21
62544;BME280;48597;49.030;1.822;2022-10-18T06:41:46;101859.22;;;20.54;55.15
62544;BME280;48597;49.030;1.822;2022-10-18T06:44:11;101861.78;;;20.55;55.07
62544;BME280;48597;49.030;1.822;2022-10-18T06:46:41;101864.31;;;20.57;55.23
62544;BME280;48597;49.030;1.822;2022-10-18T06:49:07;101869.41;;;20.60;55.25
62544;BME280;48597;49.030;1.822;2022-10-18T06:51:32;101869.41;;;20.60;54.89
62544;BME280;48597;49.030;1.822;2022-10-18T06:53:58;101871.09;;;20.61;55.04
62544;BME280;48597;49.030;1.822;2022-10-18T06:56:23;101871.94;;;20.62;55.17
62544;BME280;48597;49.030;1.822;2022-10-18T06:58:49;101875.47;;;20.62;55.05
62544;BME280;48597;49.030;1.822;2022-10-18T07:01:16;101885.91;;;20.65;55.15
62544;BME280;48597;49.030;1.822;2022-10-18T07:03:42;101885.91;;;20.65;54.95
62544;BME280;48597;49.030;1.822;2022-10-18T07:06:10;101882.38;;;20.65;54.89
62544;BME280;48597;49.030;1.822;2022-10-18T07:08:36;101882.38;;;20.65;55.07
62544;BME280;48597;49.030;1.822;2022-10-18T07:11:06;101885.16;;;20.63;54.90
62544;BME280;48597;49.030;1.822;2022-10-18T07:13:33;101891.41;;;20.64;54.90
62544;BME280;48597;49.030;1.822;2022-10-18T07:16:10;101896.75;;;20.64;54.93
62544;BME280;48597;49.030;1.822;2022-10-18T07:18:38;101901.22;;;20.63;55.10
62544;BME280;48597;49.030;1.822;2022-10-18T07:21:06;101895.88;;;20.63;54.97
62544;BME280;48597;49.030;1.822;2022-10-18T07:23:37;101903.19;;;20.61;54.86
62544;BME280;48597;49.030;1.822;2022-10-18T07:26:13;101898.69;;;20.62;54.86
62544;BME280;48597;49.030;1.822;2022-10-18T07:28:39;101901.34;;;20.62;55.00
62544;BME280;48597;49.030;1.822;2022-10-18T07:31:09;101912.78;;;20.64;54.94
62544;BME280;48597;49.030;1.822;2022-10-18T07:33:35;101914.59;;;20.63;54.93
62544;BME280;48597;49.030;1.822;2022-10-18T07:36:05;101915.47;;;20.64;55.03
62544;BME280;48597;49.030;1.822;2022-10-18T07:38:32;101910.13;;;20.64;55.09
62544;BME280;48597;49.030;1.822;2022-10-18T07:41:02;101917.16;;;20.65;54.98
62544;BME280;48597;49.030;1.822;2022-10-18T07:43:28;101914.59;;;20.63;54.94
62544;BME280;48597;49.030;1.822;2022-10-18T07:45:56;101903.91;;;20.63;54.88
62544;BME280;48597;49.030;1.822;2022-10-18T07:48:22;101904.88;;;20.62;55.02
62544;BME280;48597;49.030;1.822;2022-10-18T07:50:48;101912.78;;;20.64;55.01
62544;BME280;48597;49.030;1.822;2022-10-18T07:53:13;101914.59;;;20.63;54.71
62544;BME280;48597;49.030;1.822;2022-10-18T07:55:39;101917.25;;;20.63;54.94
62544;BME280;48597;49.030;1.822;2022-10-18T07:58:04;101917.25;;;20.63;54.97
62544;BME280;48597;49.030;1.822;2022-10-18T08:00:30;101923.50;;;20.64;55.05
62544;BME280;48597;49.030;1.822;2022-10-18T08:02:56;101926.16;;;20.64;55.03
62544;BME280;48597;49.030;1.822;2022-10-18T08:05:22;101928.84;;;20.64;55.07
62544;BME280;48597;49.030;1.822;2022-10-18T08:07:48;101928.84;;;20.64;55.08
62544;BME280;48597;49.030;1.822;2022-10-18T08:10:13;101933.31;;;20.63;54.95
62544;BME280;48597;49.030;1.822;2022-10-18T08:12:38;101933.31;;;20.63;55.20
62544;BME280;48597;49.030;1.822;2022-10-18T08:15:04;101937.72;;;20.64;54.95
62544;BME280;48597;49.030;1.822;2022-10-18T08:17:30;101940.38;;;20.64;54.73
62544;BME280;48597;49.030;1.822;2022-10-18T08:19:55;101941.34;;;20.63;55.04
62544;BME280;48597;49.030;1.822;2022-10-18T08:22:20;101938.66;;;20.63;54.95
62544;BME280;48597;49.030;1.822;2022-10-18T08:24:47;101946.69;;;20.63;55.22
62544;BME280;48597;49.030;1.822;2022-10-18T08:27:13;101949.34;;;20.63;55.37
62544;BME280;48597;49.030;1.822;2022-10-18T08:29:39;101948.50;;;20.63;55.80
62544;BME280;48597;49.030;1.822;2022-10-18T08:32:04;101961.03;;;20.62;55.83
62544;BME280;48597;49.030;1.822;2022-10-18T08:34:32;101955.69;;;20.62;56.03
62544;BME280;48597;49.030;1.822;2022-10-18T08:36:57;101952.91;;;20.64;56.19
62544;BME280;48597;49.030;1.822;2022-10-18T08:39:22;101955.59;;;20.64;56.04
62544;BME280;48597;49.030;1.822;2022-10-18T08:44:46;101960.94;;;20.64;56.04
62544;BME280;48597;49.030;1.822;2022-10-18T08:47:28;101966.28;;;20.64;55.79
62544;BME280;48597;49.030;1.822;2022-10-18T08:50:00;101977.81;;;20.64;55.77
62544;BME280;48597;49.030;1.822;2022-10-18T08:52:34;101959.94;;;20.65;55.66
62544;BME280;48597;49.030;1.822;2022-10-18T08:57:29;101957.38;;;20.63;55.58
62544;BME280;48597;49.030;1.822;2022-10-18T08:59:55;101962.63;;;20.65;55.80
62544;BME280;48597;49.030;1.822;2022-10-18T09:02:40;101954.72;;;20.63;55.50
62544;BME280;48597;49.030;1.822;2022-10-18T09:14:13;101945.59;;;20.66;55.43
62544;BME280;48597;49.030;1.822;2022-10-18T09:22:13;101944.75;;;20.65;55.43
62544;BME280;48597;49.030;1.822;2022-10-18T09:24:43;101950.09;;;20.65;55.30
62544;BME280;48597;49.030;1.822;2022-10-18T09:27:18;101946.56;;;20.65;55.32
62544;BME280;48597;49.030;1.822;2022-10-18T09:34:59;101936.72;;;20.65;55.27
62544;BME280;48597;49.030;1.822;2022-10-18T09:37:28;101948.25;;;20.66;55.25
62544;BME280;48597;49.030;1.822;2022-10-18T09:40:27;101942.06;;;20.65;55.27
62544;BME280;48597;49.030;1.822;2022-10-18T09:43:04;101944.59;;;20.67;55.24
62544;BME280;48597;49.030;1.822;2022-10-18T09:45:34;101949.09;;;20.66;55.28
62544;BME280;48597;49.030;1.822;2022-10-18T09:48:09;101957.97;;;20.67;55.18
62544;BME280;48597;49.030;1.822;2022-10-18T09:50:42;101948.25;;;20.66;55.27
62544;BME280;48597;49.030;1.822;2022-10-18T09:55:41;101958.13;;;20.65;54.98
62544;BME280;48597;49.030;1.822;2022-10-18T09:58:13;101962.47;;;20.66;55.25
62544;BME280;48597;49.030;1.822;2022-10-18T10:00:47;101969.66;;;20.66;55.22
62544;BME280;48597;49.030;1.822;2022-10-18T10:03:14;101977.69;;;20.66;55.05
62544;BME280;48597;49.030;1.822;2022-10-18T10:05:43;101976.69;;;20.67;55.22
62544;BME280;48597;49.030;1.822;2022-10-18T10:08:08;101976.69;;;20.67;55.32
62544;BME280;48597;49.030;1.822;2022-10-18T10:10:38;101971.34;;;20.67;55.11
62544;BME280;48597;49.030;1.822;2022-10-18T10:15:31;101961.53;;;20.67;55.25
62544;BME280;48597;49.030;1.822;2022-10-18T10:18:03;101968.69;;;20.67;55.36
62544;BME280;48597;49.030;1.822;2022-10-18T10:20:57;101962.38;;;20.68;55.49
62544;BME280;48597;49.030;1.822;2022-10-18T10:23:32;101974.75;;;20.69;55.25
62544;BME280;48597;49.030;1.822;2022-10-18T10:26:03;101974.75;;;20.69;55.31
62544;BME280;48597;49.030;1.822;2022-10-18T10:28:33;101967.59;;;20.69;55.18
62544;BME280;48597;49.030;1.822;2022-10-18T10:34:00;101956.75;;;20.71;55.33
62544;BME280;48597;49.030;1.822;2022-10-18T10:36:28;101957.63;;;20.71;55.21
62544;BME280;48597;49.030;1.822;2022-10-18T10:39:11;101954.06;;;20.71;55.15
62544;BME280;48597;49.030;1.822;2022-10-18T10:41:39;101961.13;;;20.72;54.98
62544;BME280;48597;49.030;1.822;2022-10-18T10:44:14;101958.47;;;20.72;55.12
62544;BME280;48597;49.030;1.822;2022-10-18T10:46:40;101963.81;;;20.72;55.14
62544;BME280;48597;49.030;1.822;2022-10-18T10:49:40;101958.56;;;20.70;55.02
62544;BME280;48597;49.030;1.822;2022-10-18T10:52:02;101954.94;;;20.71;54.98
62544;BME280;48597;49.030;1.822;2022-10-18T10:54:29;101951.41;;;20.71;55.16
62544;BME280;48597;49.030;1.822;2022-10-18T10:57:19;101951.28;;;20.72;55.16
62544;BME280;48597;49.030;1.822;2022-10-18T10:59:48;101943.25;;;20.72;55.11
62544;BME280;48597;49.030;1.822;2022-10-18T11:04:44;101943.13;;;20.74;55.01
62544;BME280;48597;49.030;1.822;2022-10-18T11:12:21;101935.00;;;20.75;55.11
62544;BME280;48597;49.030;1.822;2022-10-18T11:15:02;101942.03;;;20.76;55.27
62544;BME280;48597;49.030;1.822;2022-10-18T11:20:20;101947.38;;;20.76;55.11
62544;BME280;48597;49.030;1.822;2022-10-18T11:23:00;101946.38;;;20.77;55.02
62544;BME280;48597;49.030;1.822;2022-10-18T11:26:10;101942.72;;;20.78;55.08
62544;BME280;48597;49.030;1.822;2022-10-18T11:33:38;101934.44;;;20.81;55.13
62544;BME280;48597;49.030;1.822;2022-10-18T11:36:33;101931.78;;;20.81;55.32
62544;BME280;48597;49.030;1.822;2022-10-18T11:39:18;101914.88;;;20.81;54.93
62544;BME280;48597;49.030;1.822;2022-10-18T11:41:54;101919.25;;;20.82;55.06
62544;BME280;48597;49.030;1.822;2022-10-18T11:46:58;101913.78;;;20.83;55.36
62544;BME280;48597;49.030;1.822;2022-10-18T11:56:07;101902.09;;;20.84;55.19
62544;BME280;48597;49.030;1.822;2022-10-18T11:59:00;101903.78;;;20.86;55.32
62544;BME280;48597;49.030;1.822;2022-10-18T12:01:35;101899.41;;;20.84;55.41
62544;BME280;48597;49.030;1.822;2022-10-18T12:06:34;101890.41;;;20.86;55.19
62544;BME280;48597;49.030;1.822;2022-10-18T12:11:44;101877.88;;;20.86;55.38
62544;BME280;48597;49.030;1.822;2022-10-18T12:14:24;101879.59;;;20.87;55.35
62544;BME280;48597;49.030;1.822;2022-10-18T12:16:51;101881.41;;;20.87;55.34
62544;BME280;48597;49.030;1.822;2022-10-18T12:19:26;101878.72;;;20.87;55.35
62544;BME280;48597;49.030;1.822;2022-10-18T12:22:00;101877.75;;;20.88;55.40
62544;BME280;48597;49.030;1.822;2022-10-18T12:24:30;101876.78;;;20.89;55.22
62544;BME280;48597;49.030;1.822;2022-10-18T12:26:59;101879.44;;;20.89;55.37
62544;BME280;48597;49.030;1.822;2022-10-18T12:29:31;101875.09;;;20.88;55.10
62544;BME280;48597;49.030;1.822;2022-10-18T12:32:02;101871.44;;;20.89;55.22
62544;BME280;48597;49.030;1.822;2022-10-18T12:34:40;101877.75;;;20.88;55.32
62544;BME280;48597;49.030;1.822;2022-10-18T12:42:53;101862.56;;;20.88;55.59
62544;BME280;48597;49.030;1.822;2022-10-18T12:45:26;101865.34;;;20.87;55.52
62544;BME280;48597;49.030;1.822;2022-10-18T12:47:53;101863.41;;;20.89;55.51
62544;BME280;48597;49.030;1.822;2022-10-18T12:51:02;101862.56;;;20.88;55.76
62544;BME280;48597;49.030;1.822;2022-10-18T12:53:28;101868.75;;;20.89;55.55
62544;BME280;48597;49.030;1.822;2022-10-18T13:09:36;101865.09;;;20.90;55.61
62544;BME280;48597;49.030;1.822;2022-10-18T13:25:02;101855.38;;;20.89;55.85
62544;BME280;48597;49.030;1.822;2022-10-18T13:36:39;101851.72;;;20.90;55.62
62544;BME280;48597;49.030;1.822;2022-10-18T13:38:46;101852.69;;;20.89;55.66
62544;BME280;48597;49.030;1.822;2022-10-18T13:44:30;101853.53;;;20.89;55.51
62544;BME280;48597;49.030;1.822;2022-10-18T13:47:15;101850.88;;;20.89;55.25
62544;BME280;48597;49.030;1.822;2022-10-18T13:50:15;101851.72;;;20.90;55.60
62544;BME280;48597;49.030;1.822;2022-10-18T13:53:01;101849.03;;;20.90;55.39
62544;BME280;48597;49.030;1.822;2022-10-18T13:55:35;101844.66;;;20.89;55.56
62544;BME280;48597;49.030;1.822;2022-10-18T14:03:28;101842.00;;;20.89;55.33
62544;BME280;48597;49.030;1.822;2022-10-18T14:06:21;101844.66;;;20.89;55.56
62544;BME280;48597;49.030;1.822;2022-10-18T14:09:02;101840.31;;;20.88;55.54
62544;BME280;48597;49.030;1.822;2022-10-18T14:11:40;101834.13;;;20.87;55.71
62544;BME280;48597;49.030;1.822;2022-10-18T14:20:20;101832.28;;;20.88;55.63
62544;BME280;48597;49.030;1.822;2022-10-18T14:22:52;101834.97;;;20.88;55.61
62544;BME280;48597;49.030;1.822;2022-10-18T14:25:26;101832.28;;;20.88;55.40
62544;BME280;48597;49.030;1.822;2022-10-18T14:28:18;101832.28;;;20.88;55.51
62544;BME280;48597;49.030;1.822;2022-10-18T14:30:54;101830.44;;;20.88;55.46
62544;BME280;48597;49.030;1.822;2022-10-18T14:33:33;101829.59;;;20.88;55.29
62544;BME280;48597;49.030;1.822;2022-10-18T14:39:03;101827.88;;;20.87;55.30
62544;BME280;48597;49.030;1.822;2022-10-18T14:41:38;101826.09;;;20.87;55.33
62544;BME280;48597;49.030;1.822;2022-10-18T14:47:22;101829.72;;;20.86;55.32
62544;BME280;48597;49.030;1.822;2022-10-18T14:49:49;101824.25;;;20.88;55.33
62544;BME280;48597;49.030;1.822;2022-10-18T14:52:19;101828.75;;;20.87;55.33
62544;BME280;48597;49.030;1.822;2022-10-18T14:54:45;101827.88;;;20.87;55.30
62544;BME280;48597;49.030;1.822;2022-10-18T14:57:24;101827.88;;;20.87;55.33
62544;BME280;48597;49.030;1.822;2022-10-18T14:59:54;101826.19;;;20.86;55.18
62544;BME280;48597;49.030;1.822;2022-10-18T15:02:24;101830.56;;;20.87;55.41
62544;BME280;48597;49.030;1.822;2022-10-18T15:04:58;101833.22;;;20.87;55.41
62544;BME280;48597;49.030;1.822;2022-10-18T15:07:29;101828.88;;;20.86;55.46
62544;BME280;48597;49.030;1.822;2022-10-18T15:10:00;101825.22;;;20.87;55.50
62544;BME280;48597;49.030;1.822;2022-10-18T15:12:27;101825.22;;;20.87;55.52
62544;BME280;48597;49.030;1.822;2022-10-18T15:14:53;101816.34;;;20.86;55.32
62544;BME280;48597;49.030;1.822;2022-10-18T15:17:28;101817.19;;;20.87;55.64
62544;BME280;48597;49.030;1.822;2022-10-18T15:20:00;101811.97;;;20.85;55.48
62544;BME280;48597;49.030;1.822;2022-10-18T15:22:28;101823.41;;;20.87;55.31
62544;BME280;48597;49.030;1.822;2022-10-18T15:25:28;101815.50;;;20.86;55.50
62544;BME280;48597;49.030;1.822;2022-10-18T15:28:00;101812.72;;;20.87;55.49
62544;BME280;48597;49.030;1.822;2022-10-18T15:30:37;101806.47;;;20.87;55.16